sensor_id;sensor_type;location;lat;lon;timestamp;pressure;altitude;pressure_sealevel;temperature;humidity
5284;BME280;15377;48.540;9.268;2023-03-03T00:01:52;97639.66;;;1.72;100.00
5284;BME280;15377;48.540;9.268;2023-03-03T00:04:17;97636.91;;;1.76;100.00
5284;BME280;15377;48.540;9.268;2023-03-03T00:06:44;97637.66;;;1.76;100.00
5284;BME280;15377;48.540;9.268;2023-03-03T00:09:09;97638.44;;;1.77;100.00
5284;BME280;15377;48.540;9.268;2023-03-03T00:11:34;97640.75;;;1.78;100.00
5284;BME280;15377;48.540;9.268;2023-03-03T00:14:00;97637.66;;;1.76;100.00
5284;BME280;15377;48.540;9.268;2023-03-03T00:16:34;97636.78;;;1.86;100.00
5284;BME280;15377;48.540;9.268;2023-03-03T00:19:01;97646.88;;;1.82;100.00
5284;BME280;15377;48.540;9.268;2023-03-03T00:21:32;97627.63;;;1.73;100.00
5284;BME280;15377;48.540;9.268;2023-03-03T00:26:36;97642.84;;;1.94;100.00
5284;BME280;15377;48.540;9.268;2023-03-03T00:29:29;97636.50;;;2.04;100.00
5284;BME280;15377;48.540;9.268;2023-03-03T00:34:35;97634.91;;;2.06;100.00
5284;BME280;15377;48.540;9.268;2023-03-03T00:37:00;97657.38;;;2.10;100.00
5284;BME280;15377;48.540;9.268;2023-03-03T00:39:35;97646.59;;;2.03;100.00
5284;BME280;15377;48.540;9.268;2023-03-03T00:42:10;97634.84;;;1.83;100.00
5284;BME280;15377;48.540;9.268;2023-03-03T00:49:53;97645.25;;;1.88;100.00
5284;BME280;15377;48.540;9.268;2023-03-03T00:52:19;97641.81;;;1.84;100.00
5284;BME280;15377;48.540;9.268;2023-03-03T00:54:46;97636.38;;;1.84;100.00
5284;BME280;15377;48.540;9.268;2023-03-03T00:57:11;97644.56;;;1.81;100.00
5284;BME280;15377;48.540;9.268;2023-03-03T00:59:37;97645.81;;;1.76;100.00
5284;BME280;15377;48.540;9.268;2023-03-03T01:02:03;97634.69;;;1.67;100.00
5284;BME280;15377;48.540;9.268;2023-03-03T01:04:28;97642.03;;;1.70;100.00
5284;BME280;15377;48.540;9.268;2023-03-03T01:06:54;97634.72;;;1.64;100.00
5284;BME280;15377;48.540;9.268;2023-03-03T01:09:19;97645.63;;;1.60;100.00
5284;BME280;15377;48.540;9.268;2023-03-03T01:11:44;97627.19;;;1.48;100.00
5284;BME280;15377;48.540;9.268;2023-03-03T01:14:10;97622.72;;;1.35;100.00
5284;BME280;15377;48.540;9.268;2023-03-03T01:16:35;97632.06;;;1.30;100.00
5284;BME280;15377;48.540;9.268;2023-03-03T01:19:01;97636.78;;;1.23;100.00
5284;BME280;15377;48.540;9.268;2023-03-03T01:21:26;97623.81;;;1.07;100.00
5284;BME280;15377;48.540;9.268;2023-03-03T01:23:51;97629.91;;;1.15;100.00
5284;BME280;15377;48.540;9.268;2023-03-03T01:26:17;97626.00;;;1.19;100.00
5284;BME280;15377;48.540;9.268;2023-03-03T01:28:42;97622.03;;;1.27;100.00
5284;BME280;15377;48.540;9.268;2023-03-03T01:31:08;97614.78;;;1.17;100.00
5284;BME280;15377;48.540;9.268;2023-03-03T01:33:34;97620.28;;;1.10;100.00
5284;BME280;15377;48.540;9.268;2023-03-03T01:36:01;97626.97;;;1.02;100.00
5284;BME280;15377;48.540;9.268;2023-03-03T01:38:26;97617.78;;;0.89;100.00
5284;BME280;15377;48.540;9.268;2023-03-03T01:40:54;97628.63;;;0.89;100.00
5284;BME280;15377;48.540;9.268;2023-03-03T01:43:19;97624.53;;;0.74;100.00
5284;BME280;15377;48.540;9.268;2023-03-03T01:50:49;97626.34;;;0.47;100.00
5284;BME280;15377;48.540;9.268;2023-03-03T01:53:19;97590.59;;;0.22;100.00
5284;BME280;15377;48.540;9.268;2023-03-03T01:55:47;97631.44;;;0.38;100.00
5284;BME280;15377;48.540;9.268;2023-03-03T01:58:18;97624.56;;;0.30;100.00
5284;BME280;15377;48.540;9.268;2023-03-03T02:00:52;97615.38;;;0.17;100.00
5284;BME280;15377;48.540;9.268;2023-03-03T02:03:20;97617.34;;;0.13;100.00
5284;BME280;15377;48.540;9.268;2023-03-03T02:05:47;97623.13;;;0.15;100.00
5284;BME280;15377;48.540;9.268;2023-03-03T02:08:15;97616.56;;;0.13;100.00
5284;BME280;15377;48.540;9.268;2023-03-03T02:10:44;97598.59;;;-0.14;100.00
5284;BME280;15377;48.540;9.268;2023-03-03T02:13:10;97602.44;;;-0.08;100.00
5284;BME280;15377;48.540;9.268;2023-03-03T02:15:36;97620.88;;;0.03;100.00
5284;BME280;15377;48.540;9.268;2023-03-03T02:18:21;97613.94;;;0.02;100.00
5284;BME280;15377;48.540;9.268;2023-03-03T02:23:41;97607.16;;;-0.19;100.00
5284;BME280;15377;48.540;9.268;2023-03-03T02:26:18;97602.50;;;-0.22;100.00
5284;BME280;15377;48.540;9.268;2023-03-03T02:28:47;97598.00;;;-0.39;100.00
5284;BME280;15377;48.540;9.268;2023-03-03T02:31:16;97595.69;;;-0.44;100.00
5284;BME280;15377;48.540;9.268;2023-03-03T02:33:44;97604.53;;;-0.33;100.00
5284;BME280;15377;48.540;9.268;2023-03-03T02:36:15;97597.13;;;-0.26;100.00
5284;BME280;15377;48.540;9.268;2023-03-03T02:38:43;97597.13;;;-0.26;100.00
5284;BME280;15377;48.540;9.268;2023-03-03T02:43:54;97589.25;;;-0.07;100.00
5284;BME280;15377;48.540;9.268;2023-03-03T02:46:22;97583.69;;;0.18;100.00
5284;BME280;15377;48.540;9.268;2023-03-03T02:48:48;97573.25;;;0.16;100.00
5284;BME280;15377;48.540;9.268;2023-03-03T02:51:13;97552.09;;;0.04;100.00
5284;BME280;15377;48.540;9.268;2023-03-03T02:53:39;97554.34;;;0.13;100.00
5284;BME280;15377;48.540;9.268;2023-03-03T02:56:05;97578.03;;;0.42;100.00
5284;BME280;15377;48.540;9.268;2023-03-03T02:58:31;97581.56;;;0.39;100.00
5284;BME280;15377;48.540;9.268;2023-03-03T03:00:56;97589.56;;;0.50;100.00
5284;BME280;15377;48.540;9.268;2023-03-03T03:03:22;97585.00;;;0.43;100.00
5284;BME280;15377;48.540;9.268;2023-03-03T03:05:47;97595.84;;;0.43;100.00
5284;BME280;15377;48.540;9.268;2023-03-03T03:08:13;97597.34;;;0.48;100.00
5284;BME280;15377;48.540;9.268;2023-03-03T03:10:39;97593.53;;;0.42;100.00
5284;BME280;15377;48.540;9.268;2023-03-03T03:13:04;97596.97;;;0.42;100.00
5284;BME280;15377;48.540;9.268;2023-03-03T03:15:29;97599.69;;;0.42;100.00
5284;BME280;15377;48.540;9.268;2023-03-03T03:17:55;97592.75;;;0.41;100.00
5284;BME280;15377;48.540;9.268;2023-03-03T03:20:20;97608.13;;;0.51;100.00
5284;BME280;15377;48.540;9.268;2023-03-03T03:22:46;97599.63;;;0.49;100.00
5284;BME280;15377;48.540;9.268;2023-03-03T03:25:11;97612.31;;;0.59;100.00
5284;BME280;15377;48.540;9.268;2023-03-03T03:27:37;97600.31;;;0.60;100.00
5284;BME280;15377;48.540;9.268;2023-03-03T03:30:02;97608.72;;;0.69;100.00
5284;BME280;15377;48.540;9.268;2023-03-03T03:32:27;97610.97;;;0.74;100.00
5284;BME280;15377;48.540;9.268;2023-03-03T03:34:53;97604.38;;;0.79;100.00
5284;BME280;15377;48.540;9.268;2023-03-03T03:37:18;97605.97;;;0.76;100.00
5284;BME280;15377;48.540;9.268;2023-03-03T03:39:43;97610.84;;;0.88;100.00
5284;BME280;15377;48.540;9.268;2023-03-03T03:42:09;97617.78;;;0.89;100.00
5284;BME280;15377;48.540;9.268;2023-03-03T03:44:35;97606.19;;;0.92;100.00
5284;BME280;15377;48.540;9.268;2023-03-03T03:47:01;97615.44;;;0.95;100.00
5284;BME280;15377;48.540;9.268;2023-03-03T03:49:26;97614.66;;;0.94;100.00
5284;BME280;15377;48.540;9.268;2023-03-03T03:51:52;97615.47;;;0.91;100.00
5284;BME280;15377;48.540;9.268;2023-03-03T03:54:17;97616.19;;;0.95;100.00
5284;BME280;15377;48.540;9.268;2023-03-03T03:56:42;97613.84;;;0.97;100.00
5284;BME280;15377;48.540;9.268;2023-03-03T03:59:08;97609.63;;;0.93;100.00
5284;BME280;15377;48.540;9.268;2023-03-03T04:01:33;97621.53;;;1.02;100.00
5284;BME280;15377;48.540;9.268;2023-03-03T04:03:59;97621.09;;;1.07;100.00
5284;BME280;15377;48.540;9.268;2023-03-03T04:06:24;97624.88;;;1.13;100.00
5284;BME280;15377;48.540;9.268;2023-03-03T04:08:49;97622.56;;;1.15;100.00
5284;BME280;15377;48.540;9.268;2023-03-03T04:11:15;97608.19;;;1.18;100.00
5284;BME280;15377;48.540;9.268;2023-03-03T04:13:41;97622.81;;;1.28;100.00
5284;BME280;15377;48.540;9.268;2023-03-03T04:16:06;97621.19;;;1.34;100.00
5284;BME280;15377;48.540;9.268;2023-03-03T04:18:32;97620.38;;;1.37;100.00
5284;BME280;15377;48.540;9.268;2023-03-03T04:20:57;97615.69;;;1.37;100.00
5284;BME280;15377;48.540;9.268;2023-03-03T04:23:23;97615.78;;;1.34;100.00
5284;BME280;15377;48.540;9.268;2023-03-03T04:25:48;97608.66;;;1.43;100.00
5284;BME280;15377;48.540;9.268;2023-03-03T04:28:15;97576.75;;;1.24;100.00
5284;BME280;15377;48.540;9.268;2023-03-03T04:30:41;97594.41;;;1.39;100.00
5284;BME280;15377;48.540;9.268;2023-03-03T04:33:06;97603.97;;;1.47;100.00
5284;BME280;15377;48.540;9.268;2023-03-03T04:35:32;97616.34;;;1.48;100.00
5284;BME280;15377;48.540;9.268;2023-03-03T04:37:57;97619.41;;;1.50;100.00
5284;BME280;15377;48.540;9.268;2023-03-03T04:40:23;97620.94;;;1.51;100.00
5284;BME280;15377;48.540;9.268;2023-03-03T04:42:48;97626.03;;;1.49;100.00
5284;BME280;15377;48.540;9.268;2023-03-03T04:45:13;97634.16;;;1.49;100.00
5284;BME280;15377;48.540;9.268;2023-03-03T04:47:39;97631.09;;;1.47;100.00
5284;BME280;15377;48.540;9.268;2023-03-03T04:50:05;97634.97;;;1.46;100.00
5284;BME280;15377;48.540;9.268;2023-03-03T04:52:31;97620.28;;;1.44;100.00
5284;BME280;15377;48.540;9.268;2023-03-03T04:54:57;97636.44;;;1.54;100.00
5284;BME280;15377;48.540;9.268;2023-03-03T04:57:22;97626.72;;;1.53;100.00
5284;BME280;15377;48.540;9.268;2023-03-03T04:59:47;97640.19;;;1.60;100.00
5284;BME280;15377;48.540;9.268;2023-03-03T05:02:13;97634.38;;;1.62;100.00
5284;BME280;15377;48.540;9.268;2023-03-03T05:04:38;97638.72;;;1.56;100.00
5284;BME280;15377;48.540;9.268;2023-03-03T05:07:04;97646.72;;;1.66;100.00
5284;BME280;15377;48.540;9.268;2023-03-03T05:09:29;97640.94;;;1.64;100.00
5284;BME280;15377;48.540;9.268;2023-03-03T05:11:55;97650.59;;;1.65;100.00
5284;BME280;15377;48.540;9.268;2023-03-03T05:14:20;97647.19;;;1.61;100.00
5284;BME280;15377;48.540;9.268;2023-03-03T05:16:46;97630.22;;;1.54;100.00
5284;BME280;15377;48.540;9.268;2023-03-03T05:19:11;97646.00;;;1.62;100.00
5284;BME280;15377;48.540;9.268;2023-03-03T05:21:36;97635.59;;;1.57;100.00
5284;BME280;15377;48.540;9.268;2023-03-03T05:24:06;97644.81;;;1.63;100.00
5284;BME280;15377;48.540;9.268;2023-03-03T05:26:32;97652.09;;;1.70;100.00
5284;BME280;15377;48.540;9.268;2023-03-03T05:28:57;97644.78;;;1.67;100.00
5284;BME280;15377;48.540;9.268;2023-03-03T05:31:22;97634.06;;;1.56;100.00
5284;BME280;15377;48.540;9.268;2023-03-03T05:33:50;97650.16;;;1.70;100.00
5284;BME280;15377;48.540;9.268;2023-03-03T05:36:15;97657.09;;;1.75;100.00
5284;BME280;15377;48.540;9.268;2023-03-03T05:38:41;97653.72;;;1.64;100.00
5284;BME280;15377;48.540;9.268;2023-03-03T05:41:06;97662.56;;;1.71;100.00
5284;BME280;15377;48.540;9.268;2023-03-03T05:43:31;97656.44;;;1.64;100.00
5284;BME280;15377;48.540;9.268;2023-03-03T05:45:57;97671.94;;;1.63;100.00
5284;BME280;15377;48.540;9.268;2023-03-03T05:48:23;97662.63;;;1.64;100.00
5284;BME280;15377;48.540;9.268;2023-03-03T05:50:48;97668.78;;;1.68;100.00
5284;BME280;15377;48.540;9.268;2023-03-03T05:53:13;97654.84;;;1.66;100.00
5284;BME280;15377;48.540;9.268;2023-03-03T05:55:39;97667.16;;;1.74;100.00
5284;BME280;15377;48.540;9.268;2023-03-03T05:58:04;97669.06;;;1.77;100.00
5284;BME280;15377;48.540;9.268;2023-03-03T06:00:30;97671.00;;;1.77;100.00
5284;BME280;15377;48.540;9.268;2023-03-03T06:02:55;97661.41;;;1.69;100.00
5284;BME280;15377;48.540;9.268;2023-03-03T06:05:20;97673.28;;;1.82;100.00
5284;BME280;15377;48.540;9.268;2023-03-03T06:07:46;97665.97;;;1.75;100.00
5284;BME280;15377;48.540;9.268;2023-03-03T06:10:11;97679.41;;;1.86;100.00
5284;BME280;15377;48.540;9.268;2023-03-03T06:12:36;97667.09;;;1.78;100.00
5284;BME280;15377;48.540;9.268;2023-03-03T06:15:04;97670.94;;;1.80;100.00
5284;BME280;15377;48.540;9.268;2023-03-03T06:17:29;97686.00;;;1.85;100.00
5284;BME280;15377;48.540;9.268;2023-03-03T06:19:55;97694.09;;;1.88;100.00
5284;BME280;15377;48.540;9.268;2023-03-03T06:22:20;97691.75;;;1.90;100.00
5284;BME280;15377;48.540;9.268;2023-03-03T06:24:45;97691.75;;;1.90;100.00
5284;BME280;15377;48.540;9.268;2023-03-03T06:27:10;97692.47;;;1.94;100.00
5284;BME280;15377;48.540;9.268;2023-03-03T06:29:36;97696.38;;;1.93;100.00
5284;BME280;15377;48.540;9.268;2023-03-03T06:32:01;97688.69;;;1.88;100.00
5284;BME280;15377;48.540;9.268;2023-03-03T06:34:27;97672.09;;;1.83;100.00
5284;BME280;15377;48.540;9.268;2023-03-03T06:36:52;97696.25;;;2.00;100.00
5284;BME280;15377;48.540;9.268;2023-03-03T06:39:17;97708.94;;;2.10;100.00
5284;BME280;15377;48.540;9.268;2023-03-03T06:41:43;97713.88;;;2.15;100.00
5284;BME280;15377;48.540;9.268;2023-03-03T06:44:08;97709.63;;;2.14;100.00
5284;BME280;15377;48.540;9.268;2023-03-03T06:46:35;97709.19;;;2.19;100.00
5284;BME280;15377;48.540;9.268;2023-03-03T06:49:01;97683.78;;;2.06;100.00
5284;BME280;15377;48.540;9.268;2023-03-03T06:51:30;97716.75;;;2.31;100.00
5284;BME280;15377;48.540;9.268;2023-03-03T06:53:59;97712.13;;;2.32;100.00
5284;BME280;15377;48.540;9.268;2023-03-03T06:56:26;97726.72;;;2.41;100.00
5284;BME280;15377;48.540;9.268;2023-03-03T06:58:59;97714.38;;;2.37;100.00
5284;BME280;15377;48.540;9.268;2023-03-03T07:01:24;97730.09;;;2.49;100.00
5284;BME280;15377;48.540;9.268;2023-03-03T07:03:51;97734.28;;;2.53;100.00
5284;BME280;15377;48.540;9.268;2023-03-03T07:06:23;97738.09;;;2.59;100.00
5284;BME280;15377;48.540;9.268;2023-03-03T07:08:50;97729.22;;;2.55;100.00
5284;BME280;15377;48.540;9.268;2023-03-03T07:11:19;97737.25;;;2.62;100.00
5284;BME280;15377;48.540;9.268;2023-03-03T07:13:47;97737.16;;;2.69;100.00
5284;BME280;15377;48.540;9.268;2023-03-03T07:16:16;97742.69;;;2.62;100.00
5284;BME280;15377;48.540;9.268;2023-03-03T07:18:49;97753.00;;;2.74;100.00
5284;BME280;15377;48.540;9.268;2023-03-03T07:23:45;97753.19;;;2.87;100.00
5284;BME280;15377;48.540;9.268;2023-03-03T07:26:18;97755.41;;;2.95;100.00
5284;BME280;15377;48.540;9.268;2023-03-03T07:28:52;97752.97;;;3.01;100.00
5284;BME280;15377;48.540;9.268;2023-03-03T07:31:27;97757.81;;;3.13;100.00
5284;BME280;15377;48.540;9.268;2023-03-03T07:33:54;97730.44;;;3.00;100.00
5284;BME280;15377;48.540;9.268;2023-03-03T07:36:34;97763.00;;;3.27;100.00
5284;BME280;15377;48.540;9.268;2023-03-03T07:39:02;97760.16;;;3.34;100.00
5284;BME280;15377;48.540;9.268;2023-03-03T07:41:30;97768.69;;;3.36;100.00
5284;BME280;15377;48.540;9.268;2023-03-03T07:44:05;97765.56;;;3.37;100.00
5284;BME280;15377;48.540;9.268;2023-03-03T07:46:46;97776.44;;;3.37;100.00
5284;BME280;15377;48.540;9.268;2023-03-03T07:49:22;97775.31;;;3.35;100.00
5284;BME280;15377;48.540;9.268;2023-03-03T07:51:55;97774.00;;;3.42;100.00
5284;BME280;15377;48.540;9.268;2023-03-03T07:54:39;97774.63;;;3.50;100.00
5284;BME280;15377;48.540;9.268;2023-03-03T07:57:25;97775.91;;;3.65;100.00
5284;BME280;15377;48.540;9.268;2023-03-03T07:59:52;97785.25;;;3.64;100.00
5284;BME280;15377;48.540;9.268;2023-03-03T08:08:02;97765.47;;;3.83;100.00
5284;BME280;15377;48.540;9.268;2023-03-03T08:10:54;97766.16;;;3.87;100.00
5284;BME280;15377;48.540;9.268;2023-03-03T08:13:22;97760.56;;;3.94;100.00
5284;BME280;15377;48.540;9.268;2023-03-03T08:15:49;97769.88;;;3.96;100.00
5284;BME280;15377;48.540;9.268;2023-03-03T08:18:43;97767.41;;;4.02;100.00
5284;BME280;15377;48.540;9.268;2023-03-03T08:21:13;97778.72;;;4.20;100.00
5284;BME280;15377;48.540;9.268;2023-03-03T08:23:39;97767.53;;;4.34;100.00
5284;BME280;15377;48.540;9.268;2023-03-03T08:26:05;97774.34;;;4.42;100.00
5284;BME280;15377;48.540;9.268;2023-03-03T08:28:30;97758.97;;;4.51;100.00
5284;BME280;15377;48.540;9.268;2023-03-03T08:30:55;97779.63;;;4.84;100.00
5284;BME280;15377;48.540;9.268;2023-03-03T08:33:21;97773.75;;;4.86;100.00
5284;BME280;15377;48.540;9.268;2023-03-03T08:35:47;97773.16;;;4.94;100.00
5284;BME280;15377;48.540;9.268;2023-03-03T08:38:15;97772.75;;;5.12;100.00
5284;BME280;15377;48.540;9.268;2023-03-03T08:40:41;97777.31;;;5.31;100.00
5284;BME280;15377;48.540;9.268;2023-03-03T08:43:07;97780.84;;;5.31;100.00
5284;BME280;15377;48.540;9.268;2023-03-03T08:45:33;97778.69;;;5.23;100.00
5284;BME280;15377;48.540;9.268;2023-03-03T08:47:58;97784.34;;;5.32;100.00
5284;BME280;15377;48.540;9.268;2023-03-03T08:50:24;97781.94;;;5.50;100.00
5284;BME280;15377;48.540;9.268;2023-03-03T08:52:50;97772.53;;;5.51;100.00
5284;BME280;15377;48.540;9.268;2023-03-03T08:55:15;97777.72;;;5.61;100.00
5284;BME280;15377;48.540;9.268;2023-03-03T08:57:41;97778.38;;;5.81;100.00
5284;BME280;15377;48.540;9.268;2023-03-03T09:00:09;97778.75;;;5.83;100.00
5284;BME280;15377;48.540;9.268;2023-03-03T09:02:35;97776.38;;;5.98;100.00
5284;BME280;15377;48.540;9.268;2023-03-03T09:05:00;97788.31;;;6.04;100.00
5284;BME280;15377;48.540;9.268;2023-03-03T09:07:26;97795.69;;;5.91;100.00
5284;BME280;15377;48.540;9.268;2023-03-03T09:09:51;97787.63;;;6.00;100.00
5284;BME280;15377;48.540;9.268;2023-03-03T09:12:20;97793.53;;;6.27;100.00
5284;BME280;15377;48.540;9.268;2023-03-03T09:14:47;97798.06;;;6.71;100.00
5284;BME280;15377;48.540;9.268;2023-03-03T09:17:24;97810.09;;;6.86;100.00
5284;BME280;15377;48.540;9.268;2023-03-03T09:19:50;97805.09;;;6.97;100.00
5284;BME280;15377;48.540;9.268;2023-03-03T09:22:20;97807.41;;;7.69;100.00
5284;BME280;15377;48.540;9.268;2023-03-03T09:24:48;97804.06;;;9.03;100.00
5284;BME280;15377;48.540;9.268;2023-03-03T09:27:28;97800.50;;;8.63;100.00
5284;BME280;15377;48.540;9.268;2023-03-03T09:29:54;97803.41;;;8.38;100.00
5284;BME280;15377;48.540;9.268;2023-03-03T09:32:37;97821.00;;;8.28;100.00
5284;BME280;15377;48.540;9.268;2023-03-03T09:37:51;97812.91;;;7.91;100.00
5284;BME280;15377;48.540;9.268;2023-03-03T09:40:46;97825.94;;;7.99;100.00
5284;BME280;15377;48.540;9.268;2023-03-03T09:46:21;97824.03;;;7.75;100.00
5284;BME280;15377;48.540;9.268;2023-03-03T09:49:03;97828.88;;;8.05;100.00
5284;BME280;15377;48.540;9.268;2023-03-03T09:54:27;97820.47;;;7.99;100.00
5284;BME280;15377;48.540;9.268;2023-03-03T09:57:16;97820.25;;;8.49;100.00
5284;BME280;15377;48.540;9.268;2023-03-03T10:00:08;97820.09;;;9.71;100.00
5284;BME280;15377;48.540;9.268;2023-03-03T10:05:36;97797.50;;;13.21;83.92
5284;BME280;15377;48.540;9.268;2023-03-03T10:11:18;97806.19;;;14.03;67.24
5284;BME280;15377;48.540;9.268;2023-03-03T10:19:38;97823.19;;;11.13;80.19
5284;BME280;15377;48.540;9.268;2023-03-03T10:30:02;97825.22;;;11.78;77.70
5284;BME280;15377;48.540;9.268;2023-03-03T10:32:52;97830.72;;;12.39;76.54
5284;BME280;15377;48.540;9.268;2023-03-03T10:35:34;97820.31;;;14.05;66.34
5284;BME280;15377;48.540;9.268;2023-03-03T10:38:21;97772.16;;;13.77;62.17
5284;BME280;15377;48.540;9.268;2023-03-03T10:46:29;97824.88;;;11.52;76.24
5284;BME280;15377;48.540;9.268;2023-03-03T10:59:47;97826.16;;;10.24;85.97
5284;BME280;15377;48.540;9.268;2023-03-03T11:02:32;97799.38;;;10.33;88.15
5284;BME280;15377;48.540;9.268;2023-03-03T11:05:24;97819.41;;;10.43;86.18
5284;BME280;15377;48.540;9.268;2023-03-03T11:18:29;97809.38;;;9.46;94.03
5284;BME280;15377;48.540;9.268;2023-03-03T11:23:41;97805.72;;;9.40;96.73
5284;BME280;15377;48.540;9.268;2023-03-03T11:31:47;97785.66;;;9.13;97.42
5284;BME280;15377;48.540;9.268;2023-03-03T11:36:56;97802.38;;;9.63;96.27
5284;BME280;15377;48.540;9.268;2023-03-03T11:39:26;97777.94;;;9.47;95.57
5284;BME280;15377;48.540;9.268;2023-03-03T11:42:03;97800.78;;;9.26;95.95
5284;BME280;15377;48.540;9.268;2023-03-03T11:44:37;97800.72;;;9.08;100.00
5284;BME280;15377;48.540;9.268;2023-03-03T11:47:28;97799.50;;;9.09;100.00
5284;BME280;15377;48.540;9.268;2023-03-03T11:55:32;97777.09;;;9.11;100.00
5284;BME280;15377;48.540;9.268;2023-03-03T12:01:06;97786.41;;;9.13;100.00
5284;BME280;15377;48.540;9.268;2023-03-03T12:14:16;97778.28;;;9.67;98.23
5284;BME280;15377;48.540;9.268;2023-03-03T12:17:03;97781.34;;;9.69;98.39
5284;BME280;15377;48.540;9.268;2023-03-03T12:22:33;97781.34;;;9.78;97.45
5284;BME280;15377;48.540;9.268;2023-03-03T12:25:12;97776.78;;;9.84;94.61
5284;BME280;15377;48.540;9.268;2023-03-03T12:27:59;97785.66;;;9.88;96.00
5284;BME280;15377;48.540;9.268;2023-03-03T12:36:45;97762.09;;;9.87;95.77
5284;BME280;15377;48.540;9.268;2023-03-03T12:42:09;97764.25;;;9.92;94.80
5284;BME280;15377;48.540;9.268;2023-03-03T12:44:47;97762.75;;;10.09;94.71
5284;BME280;15377;48.540;9.268;2023-03-03T12:55:55;97763.44;;;10.55;89.40
5284;BME280;15377;48.540;9.268;2023-03-03T12:58:37;97746.78;;;10.49;90.75
5284;BME280;15377;48.540;9.268;2023-03-03T13:07:05;97744.34;;;10.51;91.12
5284;BME280;15377;48.540;9.268;2023-03-03T13:10:02;97752.16;;;10.35;91.32
5284;BME280;15377;48.540;9.268;2023-03-03T13:15:59;97744.31;;;10.60;90.80
5284;BME280;15377;48.540;9.268;2023-03-03T13:21:08;97743.16;;;10.43;91.95
5284;BME280;15377;48.540;9.268;2023-03-03T13:24:19;97748.31;;;10.59;90.79
5284;BME280;15377;48.540;9.268;2023-03-03T13:26:57;97740.31;;;10.70;91.35
5284;BME280;15377;48.540;9.268;2023-03-03T13:29:26;97737.13;;;10.63;90.74
5284;BME280;15377;48.540;9.268;2023-03-03T13:37:04;97736.38;;;10.94;88.10
5284;BME280;15377;48.540;9.268;2023-03-03T13:39:37;97743.47;;;10.87;90.53
5284;BME280;15377;48.540;9.268;2023-03-03T13:44:41;97753.28;;;11.11;87.95
5284;BME280;15377;48.540;9.268;2023-03-03T13:47:40;97739.06;;;11.12;88.54
5284;BME280;15377;48.540;9.268;2023-03-03T13:50:32;97743.94;;;11.08;88.73
5284;BME280;15377;48.540;9.268;2023-03-03T13:56:31;97740.56;;;10.81;90.77
5284;BME280;15377;48.540;9.268;2023-03-03T14:04:49;97743.75;;;10.88;89.61
5284;BME280;15377;48.540;9.268;2023-03-03T14:07:20;97723.25;;;10.48;90.60
5284;BME280;15377;48.540;9.268;2023-03-03T14:09:53;97729.28;;;10.20;91.26
5284;BME280;15377;48.540;9.268;2023-03-03T14:12:48;97712.50;;;10.09;91.87
5284;BME280;15377;48.540;9.268;2023-03-03T14:15:29;97725.31;;;10.03;93.25
5284;BME280;15377;48.540;9.268;2023-03-03T14:19:11;97704.38;;;9.96;94.77
5284;BME280;15377;48.540;9.268;2023-03-03T14:21:40;97720.13;;;9.87;95.20
5284;BME280;15377;48.540;9.268;2023-03-03T14:24:16;97714.00;;;9.65;96.69
5284;BME280;15377;48.540;9.268;2023-03-03T14:26:56;97718.13;;;9.69;95.99
5284;BME280;15377;48.540;9.268;2023-03-03T14:31:54;97715.69;;;9.53;96.44
5284;BME280;15377;48.540;9.268;2023-03-03T14:36:49;97701.03;;;9.47;97.89
5284;BME280;15377;48.540;9.268;2023-03-03T14:41:49;97715.69;;;9.53;97.16
5284;BME280;15377;48.540;9.268;2023-03-03T14:45:14;97709.44;;;9.53;97.69
5284;BME280;15377;48.540;9.268;2023-03-03T14:49:36;97715.69;;;9.44;99.15
5284;BME280;15377;48.540;9.268;2023-03-03T14:52:21;97719.31;;;9.23;100.00
5284;BME280;15377;48.540;9.268;2023-03-03T14:54:56;97716.25;;;9.12;100.00
5284;BME280;15377;48.540;9.268;2023-03-03T15:00:28;97716.22;;;9.03;100.00
5284;BME280;15377;48.540;9.268;2023-03-03T15:02:58;97722.00;;;8.96;100.00
5284;BME280;15377;48.540;9.268;2023-03-03T15:05:29;97704.84;;;8.74;100.00
5284;BME280;15377;48.540;9.268;2023-03-03T15:10:44;97716.31;;;8.82;100.00
5284;BME280;15377;48.540;9.268;2023-03-03T15:18:25;97705.44;;;8.69;100.00
5284;BME280;15377;48.540;9.268;2023-03-03T15:21:12;97712.19;;;8.77;100.00
5284;BME280;15377;48.540;9.268;2023-03-03T15:24:16;97718.84;;;8.76;100.00
5284;BME280;15377;48.540;9.268;2023-03-03T15:26:53;97715.50;;;8.72;100.00
5284;BME280;15377;48.540;9.268;2023-03-03T15:38:25;97721.03;;;8.81;100.00
5284;BME280;15377;48.540;9.268;2023-03-03T15:43:40;97711.50;;;8.64;100.00
5284;BME280;15377;48.540;9.268;2023-03-03T15:56:53;97711.50;;;8.64;100.00
5284;BME280;15377;48.540;9.268;2023-03-03T16:02:30;97709.00;;;8.48;100.00
5284;BME280;15377;48.540;9.268;2023-03-03T16:05:15;97717.81;;;8.43;100.00
5284;BME280;15377;48.540;9.268;2023-03-03T16:10:46;97721.41;;;8.31;100.00
5284;BME280;15377;48.540;9.268;2023-03-03T16:18:44;97718.63;;;8.22;100.00
5284;BME280;15377;48.540;9.268;2023-03-03T16:27:34;97729.03;;;8.15;100.00
5284;BME280;15377;48.540;9.268;2023-03-03T16:35:38;97738.31;;;7.74;100.00
5284;BME280;15377;48.540;9.268;2023-03-03T16:38:31;97759.50;;;7.74;100.00
5284;BME280;15377;48.540;9.268;2023-03-03T16:41:03;97738.97;;;7.57;100.00
5284;BME280;15377;48.540;9.268;2023-03-03T16:46:37;97755.88;;;7.43;100.00
5284;BME280;15377;48.540;9.268;2023-03-03T16:52:02;97755.03;;;7.21;100.00
5284;BME280;15377;48.540;9.268;2023-03-03T16:54:46;97750.13;;;7.03;100.00
5284;BME280;15377;48.540;9.268;2023-03-03T17:02:43;97773.22;;;6.65;100.00
5284;BME280;15377;48.540;9.268;2023-03-03T17:05:26;97763.16;;;6.50;100.00
5284;BME280;15377;48.540;9.268;2023-03-03T17:14:12;97766.44;;;5.75;100.00
5284;BME280;15377;48.540;9.268;2023-03-03T17:16:58;97784.22;;;5.67;100.00
5284;BME280;15377;48.540;9.268;2023-03-03T17:20:05;97786.53;;;5.37;100.00
5284;BME280;15377;48.540;9.268;2023-03-03T17:22:40;97790.31;;;5.11;100.00
5284;BME280;15377;48.540;9.268;2023-03-03T17:25:21;97798.97;;;4.90;100.00
5284;BME280;15377;48.540;9.268;2023-03-03T17:28:07;97785.00;;;4.72;100.00
5284;BME280;15377;48.540;9.268;2023-03-03T17:33:35;97786.03;;;4.42;100.00
5284;BME280;15377;48.540;9.268;2023-03-03T17:38:55;97802.78;;;4.41;100.00
5284;BME280;15377;48.540;9.268;2023-03-03T17:46:51;97817.66;;;3.78;100.00
5284;BME280;15377;48.540;9.268;2023-03-03T17:52:25;97826.63;;;3.55;100.00
5284;BME280;15377;48.540;9.268;2023-03-03T18:02:40;97844.25;;;2.98;100.00